Time;durP1;ratioP1;P1;durP2;ratioP2;P2;SDS_P1;SDS_P2;PMS_P1;PMS_P2;Temp;Humidity;BMP_temperature;BMP_pressure;BME280_temperature;BME280_humidity;BME280_pressure;Samples;Min_cycle;Max_cycle;Signal;HPM_P1;HPM_P2
2022/06/16 00:01:41;;;;;;;8.35;5.50;;;19.10;1.00;;;;;;5073224;28;20227;-67
2022/06/16 00:04:07;;;;;;;10.43;5.45;;;19.00;1.00;;;;;;5073645;28;20584;-67
2022/06/16 00:06:33;;;;;;;6.68;5.03;;;18.90;1.00;;;;;;5073643;28;20168;-67
2022/06/16 00:08:59;;;;;;;7.25;5.20;;;18.80;1.00;;;;;;5073164;28;20226;-67
2022/06/16 00:11:24;;;;;;;6.13;5.10;;;18.70;1.00;;;;;;5073599;28;20177;-67
2022/06/16 00:13:51;;;;;;;8.05;5.47;;;18.70;1.00;;;;;;5073653;28;20193;-68
2022/06/16 00:16:19;;;;;;;5.40;4.87;;;18.70;1.00;;;;;;5073555;28;20267;-67
2022/06/16 00:18:45;;;;;;;7.73;5.63;;;18.60;1.00;;;;;;5073536;28;20165;-67
2022/06/16 00:21:11;;;;;;;6.22;5.25;;;18.60;1.00;;;;;;5073578;28;20692;-67
2022/06/16 00:23:37;;;;;;;9.43;5.60;;;18.60;1.00;;;;;;5073255;28;20196;-68
2022/06/16 00:26:03;;;;;;;9.43;5.50;;;18.60;1.00;;;;;;5073515;28;20199;-66
2022/06/16 00:28:29;;;;;;;8.80;6.10;;;18.60;1.00;;;;;;5073441;28;20234;-68
2022/06/16 00:31:05;;;;;;;8.27;5.50;;;18.50;1.00;;;;;;5073350;28;20631;-67
2022/06/16 00:33:31;;;;;;;8.25;5.50;;;18.50;1.00;;;;;;5073112;28;20196;-66
2022/06/16 00:35:57;;;;;;;9.17;5.33;;;18.50;1.00;;;;;;5073480;28;20310;-67
2022/06/16 00:38:24;;;;;;;8.98;5.38;;;18.40;1.00;;;;;;5073022;28;20629;-66
2022/06/16 00:40:50;;;;;;;8.23;5.20;;;18.40;1.00;;;;;;5073277;28;20619;-67
2022/06/16 00:43:16;;;;;;;11.88;6.82;;;18.30;1.00;;;;;;5073148;28;20165;-67
2022/06/16 00:45:55;;;;;;;6.97;5.80;;;18.30;1.00;;;;;;5073280;28;20183;-68
2022/06/16 00:48:46;;;;;;;7.37;5.57;;;18.30;1.00;;;;;;5073057;28;20581;-68
2022/06/16 00:51:28;;;;;;;6.20;5.40;;;18.30;1.00;;;;;;5072950;28;20177;-68
2022/06/16 00:53:58;;;;;;;7.87;6.00;;;18.30;1.00;;;;;;5072862;28;20200;-68
2022/06/16 00:56:24;;;;;;;7.67;6.10;;;18.20;1.00;;;;;;5073019;28;20180;-67
2022/06/16 00:58:57;;;;;;;10.83;6.30;;;18.20;1.00;;;;;;5072953;28;20185;-67
2022/06/16 01:01:25;;;;;;;6.57;5.97;;;18.10;1.00;;;;;;5072821;28;20293;-67
2022/06/16 01:06:35;;;;;;;9.63;6.07;;;18.10;1.00;;;;;;5073071;28;20242;-66
2022/06/16 01:09:07;;;;;;;7.30;5.90;;;18.00;1.00;;;;;;5072817;28;20586;-67
2022/06/16 01:14:54;;;;;;;9.40;6.10;;;17.90;1.00;;;;;;5072813;28;20350;-67
2022/06/16 01:17:36;;;;;;;8.47;6.10;;;17.90;1.00;;;;;;5073001;28;20165;-68
2022/06/16 01:20:13;;;;;;;10.67;6.47;;;17.80;1.00;;;;;;5073239;28;20171;-68
2022/06/16 01:22:56;;;;;;;7.63;5.57;;;17.80;1.00;;;;;;5076753;28;20654;-68
2022/06/16 01:25:36;;;;;;;8.50;6.70;;;17.80;1.00;;;;;;5076980;28;20175;-67
2022/06/16 01:28:27;;;;;;;8.23;6.10;;;17.80;1.00;;;;;;5076793;28;20180;-67
2022/06/16 01:30:58;;;;;;;7.93;6.27;;;17.80;1.00;;;;;;5076787;28;20180;-67
2022/06/16 01:33:29;;;;;;;7.60;6.10;;;17.70;1.00;;;;;;5076391;28;20161;-68
2022/06/16 01:36:34;;;;;;;9.73;6.53;;;17.70;1.00;;;;;;5076344;28;20175;-67
2022/06/16 01:39:20;;;;;;;11.10;6.73;;;17.70;1.00;;;;;;5068216;28;20272;-68
2022/06/16 01:41:58;;;;;;;14.63;7.47;;;17.60;1.00;;;;;;5076108;28;20662;-68
2022/06/16 01:44:53;;;;;;;15.63;7.20;;;17.60;1.00;;;;;;5076548;28;20203;-67
2022/06/16 01:47:21;;;;;;;18.77;7.63;;;17.60;1.00;;;;;;5075063;28;20253;-67
2022/06/16 01:50:00;;;;;;;17.23;7.03;;;17.60;1.00;;;;;;5075987;28;20192;-67
2022/06/16 01:52:37;;;;;;;15.80;7.17;;;17.60;1.00;;;;;;5076332;28;20176;-68
2022/06/16 01:55:11;;;;;;;16.97;7.57;;;17.50;1.00;;;;;;5076240;28;20219;-67
2022/06/16 01:57:50;;;;;;;18.23;7.00;;;17.50;1.00;;;;;;5076110;28;20200;-68
2022/06/16 02:00:20;;;;;;;16.10;8.10;;;17.40;1.00;;;;;;5076002;28;20186;-67
2022/06/16 02:02:54;;;;;;;12.00;7.43;;;17.40;1.00;;;;;;5075654;28;20266;-66
2022/06/16 02:05:38;;;;;;;13.37;7.60;;;17.40;1.00;;;;;;5075793;28;20188;-67
2022/06/16 02:08:17;;;;;;;11.73;7.33;;;17.40;1.00;;;;;;5075981;28;20187;-66
2022/06/16 02:10:49;;;;;;;9.50;6.70;;;17.30;1.00;;;;;;5075663;28;20164;-68
2022/06/16 02:13:20;;;;;;;13.57;7.87;;;17.30;1.00;;;;;;5075913;28;20175;-67
2022/06/16 02:16:09;;;;;;;14.03;6.80;;;17.30;4.10;;;;;;5075811;28;20257;-66
2022/06/16 02:18:38;;;;;;;10.77;7.40;;;17.30;5.20;;;;;;5075374;28;20180;-67
2022/06/16 02:21:29;;;;;;;12.50;7.20;;;17.20;6.40;;;;;;5075498;28;20165;-67
2022/06/16 02:23:57;;;;;;;10.70;7.60;;;17.20;6.00;;;;;;5075561;28;20631;-67
2022/06/16 02:26:23;;;;;;;13.73;7.63;;;17.20;7.40;;;;;;5075785;28;20264;-66
2022/06/16 02:28:51;;;;;;;8.60;7.57;;;17.20;7.90;;;;;;5075324;28;20245;-67
2022/06/16 02:31:50;;;;;;;7.83;6.97;;;17.20;6.70;;;;;;5075392;28;20179;-67
2022/06/16 02:34:22;;;;;;;10.30;7.27;;;17.30;4.50;;;;;;5074951;28;20721;-67
2022/06/16 02:37:08;;;;;;;8.17;6.90;;;17.20;6.30;;;;;;5075620;28;20169;-67
2022/06/16 02:40:11;;;;;;;11.23;7.53;;;17.10;6.00;;;;;;5075434;28;20243;-67
2022/06/16 02:43:19;;;;;;;8.27;7.47;;;17.00;10.10;;;;;;5075254;28;20172;-67
2022/06/16 02:46:01;;;;;;;11.47;7.70;;;17.00;10.80;;;;;;5075257;28;20164;-67
2022/06/16 02:48:51;;;;;;;11.43;7.60;;;16.90;12.50;;;;;;5074667;28;20710;-67
2022/06/16 02:51:42;;;;;;;14.50;7.47;;;16.80;15.50;;;;;;5075228;28;20179;-67
2022/06/16 02:54:38;;;;;;;11.23;7.60;;;16.80;19.40;;;;;;5074948;28;20212;-67
2022/06/16 02:57:10;;;;;;;10.63;7.43;;;16.70;21.30;;;;;;5075082;28;20232;-67
2022/06/16 02:59:49;;;;;;;13.90;8.00;;;16.70;20.40;;;;;;5074858;28;20532;-67
2022/06/16 03:02:18;;;;;;;12.77;7.80;;;16.70;20.80;;;;;;5074247;28;20228;-68
2022/06/16 03:04:48;;;;;;;8.93;7.93;;;16.70;20.40;;;;;;5074695;28;20506;-67
2022/06/16 03:07:14;;;;;;;9.43;7.40;;;16.60;18.30;;;;;;5074701;28;20252;-67
2022/06/16 03:09:40;;;;;;;11.17;7.30;;;16.50;22.80;;;;;;5074839;28;20177;-67
2022/06/16 03:12:08;;;;;;;10.30;8.37;;;16.40;24.30;;;;;;5074770;28;20176;-67
2022/06/16 03:14:34;;;;;;;10.90;7.67;;;16.40;26.50;;;;;;5074602;28;20219;-67
2022/06/16 03:17:01;;;;;;;9.57;7.50;;;16.40;27.90;;;;;;5074329;28;20504;-67
2022/06/16 03:19:26;;;;;;;13.00;7.47;;;16.40;27.00;;;;;;5074144;28;20627;-67
2022/06/16 03:21:54;;;;;;;10.80;7.47;;;16.40;27.50;;;;;;5074248;28;20222;-67
2022/06/16 03:24:20;;;;;;;8.80;7.60;;;16.30;28.40;;;;;;5074576;28;20165;-67
2022/06/16 03:26:46;;;;;;;10.47;8.03;;;16.40;29.30;;;;;;5074405;28;20176;-67
2022/06/16 03:29:11;;;;;;;9.47;7.93;;;16.40;29.10;;;;;;5074273;28;20169;-66
2022/06/16 03:31:37;;;;;;;12.50;8.07;;;16.40;29.40;;;;;;5073833;28;20623;-67
2022/06/16 03:34:03;;;;;;;9.67;8.70;;;16.40;28.40;;;;;;5073710;28;20258;-67
2022/06/16 03:36:28;;;;;;;9.83;8.37;;;16.30;31.10;;;;;;5074291;28;20173;-67
2022/06/16 03:38:54;;;;;;;10.50;8.80;;;16.30;33.30;;;;;;5073969;28;20180;-67
2022/06/16 03:41:19;;;;;;;11.57;8.47;;;16.30;35.80;;;;;;5073900;28;20256;-67
2022/06/16 03:43:45;;;;;;;9.43;8.53;;;16.30;37.00;;;;;;5073652;28;20238;-67
2022/06/16 03:46:12;;;;;;;12.00;8.73;;;16.30;37.50;;;;;;5072285;28;20176;-67
2022/06/16 03:48:39;;;;;;;10.57;8.40;;;16.50;33.50;;;;;;5073679;28;20215;-67
2022/06/16 03:51:06;;;;;;;9.37;8.00;;;16.60;28.40;;;;;;5073723;28;20176;-68
2022/06/16 03:53:32;;;;;;;13.77;8.73;;;16.80;22.10;;;;;;5073330;28;20177;-67
2022/06/16 03:55:58;;;;;;;15.27;8.30;;;17.10;11.70;;;;;;5073533;28;20241;-68
2022/06/16 03:58:23;;;;;;;11.53;8.40;;;17.40;1.00;;;;;;5073455;28;20173;-68
2022/06/16 04:00:50;;;;;;;14.27;8.13;;;17.60;1.00;;;;;;5072822;28;20507;-68
2022/06/16 04:06:01;;;;;;;11.77;7.70;;;18.40;1.00;;;;;;5073961;28;20584;-68
2022/06/16 04:08:27;;;;;;;12.88;8.65;;;18.70;1.00;;;;;;5072884;28;20272;-68
2022/06/16 04:10:53;;;;;;;9.18;7.32;;;19.20;1.00;;;;;;5073293;28;20538;-67
2022/06/16 04:13:19;;;;;;;12.20;7.70;;;19.40;1.00;;;;;;5073290;28;20180;-67
2022/06/16 04:15:45;;;;;;;8.98;7.22;;;19.90;1.00;;;;;;5072896;28;20185;-67
2022/06/16 04:18:11;;;;;;;8.90;7.40;;;20.60;1.00;;;;;;5072941;28;20168;-68
2022/06/16 04:20:38;;;;;;;10.70;7.07;;;21.00;1.00;;;;;;5073279;28;20173;-67
2022/06/16 04:23:04;;;;;;;10.93;7.13;;;21.40;99.90;;;;;;5072828;28;20253;-68
2022/06/16 04:25:32;;;;;;;12.82;7.00;;;22.10;99.90;;;;;;5073226;28;20169;-69
2022/06/16 04:28:03;;;;;;;12.05;7.05;;;22.00;99.90;;;;;;5073169;28;20173;-67
2022/06/16 04:30:29;;;;;;;9.88;6.75;;;22.00;99.90;;;;;;5072697;28;20549;-68
2022/06/16 04:32:57;;;;;;;19.02;8.10;;;21.70;99.90;;;;;;5072904;28;20169;-68
2022/06/16 04:35:23;;;;;;;10.20;7.00;;;22.50;26.90;;;;;;5072691;28;20220;-68
2022/06/16 04:37:49;;;;;;;12.95;7.20;;;23.10;1.00;;;;;;5073093;28;20595;-68
2022/06/16 04:40:15;;;;;;;12.60;7.30;;;23.70;1.00;;;;;;5072706;28;20252;-68
2022/06/16 04:42:40;;;;;;;14.98;6.72;;;23.30;99.90;;;;;;5072673;28;20177;-68
2022/06/16 04:45:07;;;;;;;13.18;6.78;;;23.40;99.90;;;;;;5072588;28;20561;-68
2022/06/16 04:47:32;;;;;;;11.32;7.15;;;23.00;1.00;;;;;;5072839;28;20184;-68
2022/06/16 04:49:58;;;;;;;13.30;6.97;;;23.70;99.90;;;;;;5072571;28;20168;-68
2022/06/16 04:52:23;;;;;;;13.68;7.30;;;23.70;1.00;;;;;;5072181;28;20590;-67
2022/06/16 04:54:50;;;;;;;14.82;7.35;;;23.20;1.00;;;;;;5072380;28;20295;-68
2022/06/16 04:57:16;;;;;;;14.57;6.82;;;23.20;99.90;;;;;;5076690;28;20218;-67
2022/06/16 04:59:42;;;;;;;12.18;6.90;;;22.80;99.90;;;;;;5076145;28;20169;-67
2022/06/16 05:02:08;;;;;;;10.93;6.65;;;23.00;32.60;;;;;;5075927;28;20227;-68
2022/06/16 05:04:35;;;;;;;10.57;6.88;;;22.70;99.90;;;;;;5076789;28;20244;-67
2022/06/16 05:07:01;;;;;;;11.80;6.55;;;22.90;47.10;;;;;;5076332;28;20255;-68
2022/06/16 05:09:26;;;;;;;12.75;7.40;;;23.40;1.00;;;;;;5076244;28;20692;-67
2022/06/16 05:11:52;;;;;;;15.98;6.68;;;23.20;1.00;;;;;;5075623;28;20173;-68
2022/06/16 05:14:18;;;;;;;13.13;7.07;;;23.40;1.00;;;;;;5076142;28;20670;-69
2022/06/16 05:16:43;;;;;;;13.82;6.85;;;24.50;1.00;;;;;;5075898;28;20642;-69
2022/06/16 05:19:09;;;;;;;11.80;6.10;;;24.60;1.00;;;;;;5076204;28;20196;-69
2022/06/16 05:21:36;;;;;;;12.18;6.85;;;25.60;99.90;;;;;;5075644;28;20185;-69
2022/06/16 05:24:01;;;;;;;11.40;6.25;;;25.70;99.90;;;;;;5075487;28;20211;-70
2022/06/16 05:26:28;;;;;;;11.85;6.53;;;26.20;99.90;;;;;;5075281;28;20172;-69
2022/06/16 05:28:54;;;;;;;8.45;6.07;;;25.80;99.90;;;;;;5075570;28;20184;-69
2022/06/16 05:31:19;;;;;;;9.48;6.40;;;25.20;99.90;;;;;;5075974;28;20636;-68
2022/06/16 05:33:45;;;;;;;12.13;6.40;;;24.70;99.90;;;;;;5075379;28;20208;-69
2022/06/16 05:36:12;;;;;;;8.45;6.10;;;25.20;99.90;;;;;;5074672;28;20192;-69
2022/06/16 05:38:38;;;;;;;7.00;6.30;;;25.70;99.90;;;;;;5075000;28;20175;-68
2022/06/16 05:41:12;;;;;;;7.38;6.15;;;26.10;99.90;;;;;;5074502;28;20164;-70
2022/06/16 05:43:37;;;;;;;8.00;6.43;;;26.20;99.90;;;;;;5075569;28;20257;-70
2022/06/16 05:46:05;;;;;;;9.27;6.05;;;27.10;99.90;;;;;;5075409;28;20211;-71
2022/06/16 05:48:30;;;;;;;17.38;6.20;;;27.50;99.90;;;;;;5074648;28;20175;-72
2022/06/16 05:51:05;;;;;;;10.10;6.50;;;26.80;99.90;;;;;;5075301;28;20281;-70
2022/06/16 05:53:31;;;;;;;8.10;6.13;;;25.70;99.90;;;;;;5074762;28;20175;-69
2022/06/16 05:55:57;;;;;;;8.45;6.30;;;26.20;99.90;;;;;;5073834;28;20179;-70
2022/06/16 05:58:22;;;;;;;8.65;6.57;;;26.50;99.90;;;;;;5074547;28;20164;-69
2022/06/16 06:00:48;;;;;;;10.45;6.50;;;26.10;99.90;;;;;;5074821;28;20205;-70
2022/06/16 06:03:13;;;;;;;9.52;6.57;;;26.70;99.90;;;;;;5074588;28;20296;-69
2022/06/16 06:05:39;;;;;;;12.45;6.28;;;26.60;99.90;;;;;;5074016;28;20180;-69
2022/06/16 06:16:29;;;;;;;7.18;6.55;;;28.90;99.90;;;;;;5074483;28;20179;-69
2022/06/16 06:18:59;;;;;;;7.45;6.75;;;27.30;99.90;;;;;;5075048;28;20309;-69
2022/06/16 06:24:11;;;;;;;7.15;6.50;;;29.50;99.90;;;;;;5074798;28;20309;-69
2022/06/16 06:26:37;;;;;;;8.18;7.13;;;30.50;99.90;;;;;;5074461;28;20164;-68
2022/06/16 06:29:04;;;;;;;13.75;6.72;;;30.00;99.90;;;;;;5073445;28;20195;-69
2022/06/16 06:31:29;;;;;;;7.60;6.10;;;30.50;99.90;;;;;;5073914;28;20252;-69
2022/06/16 06:33:55;;;;;;;10.50;6.47;;;30.40;99.90;;;;;;5074347;28;20789;-70
2022/06/16 06:36:21;;;;;;;8.43;6.35;;;30.40;99.90;;;;;;5074354;28;20206;-71
2022/06/16 06:38:46;;;;;;;10.65;6.35;;;30.70;99.90;;;;;;5074284;28;20173;-69
2022/06/16 06:41:12;;;;;;;9.52;7.05;;;31.40;99.90;;;;;;5074240;28;20165;-70
2022/06/16 06:43:37;;;;;;;8.88;6.45;;;31.80;99.70;;;;;;5074402;28;20195;-70
2022/06/16 06:46:03;;;;;;;13.45;6.78;;;32.70;94.00;;;;;;5073930;28;20190;-70
2022/06/16 06:48:29;;;;;;;11.55;7.22;;;32.70;90.00;;;;;;5073155;28;20445;-70
2022/06/16 06:50:54;;;;;;;17.25;7.25;;;32.40;86.50;;;;;;5074130;28;20259;-70
2022/06/16 06:53:20;;;;;;;10.63;6.60;;;32.30;89.20;;;;;;5073409;28;20169;-71
2022/06/16 06:55:46;;;;;;;11.85;7.43;;;32.60;74.30;;;;;;5073062;28;20223;-70
2022/06/16 06:58:21;;;;;;;11.70;6.38;;;32.90;77.30;;;;;;5073926;28;20276;-70
2022/06/16 07:00:49;;;;;;;12.35;7.15;;;33.00;72.30;;;;;;5073889;28;20574;-70
2022/06/16 07:03:15;;;;;;;13.90;8.02;;;33.10;70.90;;;;;;5073791;28;20200;-70
2022/06/16 07:05:41;;;;;;;9.68;6.78;;;32.20;67.40;;;;;;5072930;28;20214;-69
2022/06/16 07:08:06;;;;;;;14.25;7.18;;;31.40;71.90;;;;;;5073046;28;20545;-69
2022/06/16 07:10:32;;;;;;;7.70;6.50;;;31.90;74.10;;;;;;5073279;28;20662;-70
2022/06/16 07:12:58;;;;;;;8.77;7.10;;;31.50;71.00;;;;;;5074032;28;20218;-69
2022/06/16 07:15:23;;;;;;;16.77;7.13;;;30.10;78.80;;;;;;5073218;28;20204;-70
2022/06/16 07:17:49;;;;;;;9.88;7.65;;;30.00;85.10;;;;;;5072648;28;20690;-69
2022/06/16 07:20:16;;;;;;;11.38;7.15;;;29.60;88.40;;;;;;5074281;28;20545;-69
2022/06/16 07:22:43;;;;;;;12.65;7.57;;;29.50;90.70;;;;;;5081070;28;20192;-70
2022/06/16 07:25:09;;;;;;;8.00;6.68;;;29.40;99.90;;;;;;5086561;28;20252;-69
2022/06/16 07:27:35;;;;;;;10.20;6.72;;;29.30;91.30;;;;;;5080793;28;20255;-69
2022/06/16 07:30:01;;;;;;;12.30;7.20;;;28.90;94.90;;;;;;5084016;28;20187;-71
2022/06/16 07:32:27;;;;;;;10.35;6.72;;;28.40;95.30;;;;;;5077102;28;20180;-70
2022/06/16 07:34:52;;;;;;;8.93;6.28;;;29.70;97.10;;;;;;5093126;28;20211;-71
2022/06/16 07:37:19;;;;;;;10.02;6.72;;;30.60;93.60;;;;;;5093424;28;20166;-71
2022/06/16 07:39:44;;;;;;;12.23;6.63;;;29.90;93.40;;;;;;5093282;28;20282;-71
2022/06/16 07:42:10;;;;;;;9.20;5.93;;;30.40;87.40;;;;;;5093155;28;20557;-71
2022/06/16 07:44:37;;;;;;;15.07;6.28;;;30.90;88.20;;;;;;5092225;28;20236;-70
2022/06/16 07:47:04;;;;;;;11.02;6.18;;;30.90;87.00;;;;;;5092760;28;20246;-70
2022/06/16 07:49:30;;;;;;;7.63;5.88;;;30.60;81.00;;;;;;5093189;28;20168;-71
2022/06/16 07:51:57;;;;;;;9.38;5.70;;;30.30;82.60;;;;;;5093089;28;20205;-70
2022/06/16 07:54:24;;;;;;;7.85;5.90;;;30.20;90.60;;;;;;5093166;28;20207;-70
2022/06/16 07:56:50;;;;;;;8.65;5.57;;;32.00;78.60;;;;;;5092398;28;20179;-70
2022/06/16 07:59:16;;;;;;;6.22;5.00;;;32.80;71.70;;;;;;5093085;28;20191;-70
2022/06/16 08:01:42;;;;;;;7.45;5.97;;;33.20;62.60;;;;;;5093139;28;20219;-70
2022/06/16 08:04:08;;;;;;;9.02;5.22;;;31.00;62.10;;;;;;5093005;28;20655;-69
2022/06/16 08:06:36;;;;;;;6.75;5.43;;;30.30;73.60;;;;;;5092254;28;20168;-69
2022/06/16 08:09:20;;;;;;;9.30;5.32;;;31.00;75.80;;;;;;5094487;28;20238;-69
2022/06/16 08:12:04;;;;;;;13.88;6.05;;;32.30;61.50;;;;;;5077942;28;20258;-70
2022/06/16 08:14:36;;;;;;;8.23;6.00;;;31.60;66.70;;;;;;5077747;28;20222;-70
2022/06/16 08:17:03;;;;;;;13.85;5.60;;;32.10;65.60;;;;;;5072710;28;20203;-70
2022/06/16 08:19:29;;;;;;;8.57;5.78;;;31.80;60.00;;;;;;5072426;28;20168;-71
2022/06/16 08:21:54;;;;;;;9.00;5.13;;;31.90;60.50;;;;;;5070765;28;20239;-71
2022/06/16 08:24:20;;;;;;;9.90;5.40;;;32.50;54.60;;;;;;5072110;28;20303;-71
2022/06/16 08:26:46;;;;;;;6.10;5.10;;;33.40;50.80;;;;;;5072592;28;20203;-70
2022/06/16 08:29:15;;;;;;;7.95;5.32;;;33.20;47.40;;;;;;5077801;28;20618;-70
2022/06/16 08:31:42;;;;;;;8.88;5.13;;;32.50;49.40;;;;;;5072769;28;20160;-71
2022/06/16 08:34:08;;;;;;;8.25;4.95;;;33.10;46.10;;;;;;5072359;28;20271;-71
2022/06/16 08:36:34;;;;;;;8.73;6.03;;;31.20;48.50;;;;;;5071802;28;20168;-72
2022/06/16 08:39:00;;;;;;;8.70;5.30;;;31.10;55.70;;;;;;5072404;28;20173;-71
2022/06/16 08:41:31;;;;;;;6.28;4.43;;;30.90;53.00;;;;;;5072247;28;20179;-71
2022/06/16 08:44:22;;;;;;;8.25;5.32;;;30.60;56.60;;;;;;5072132;28;20203;-70
2022/06/16 08:47:16;;;;;;;5.07;4.38;;;30.60;57.20;;;;;;5072242;28;20250;-69
2022/06/16 08:50:04;;;;;;;6.25;4.75;;;29.80;65.90;;;;;;5071059;28;20172;-70
2022/06/16 08:52:56;;;;;;;6.05;4.25;;;29.20;67.30;;;;;;5072063;28;20176;-69
2022/06/16 08:55:47;;;;;;;6.45;4.53;;;29.10;71.60;;;;;;5072270;28;20215;-68
2022/06/16 08:58:34;;;;;;;6.85;4.45;;;30.40;67.60;;;;;;5071946;28;20203;-69
2022/06/16 09:01:07;;;;;;;5.07;3.38;;;30.40;59.80;;;;;;5071703;28;20191;-70
2022/06/16 09:03:42;;;;;;;5.75;4.03;;;29.80;58.10;;;;;;5071948;28;20164;-69
2022/06/16 09:06:24;;;;;;;4.38;3.97;;;29.50;60.20;;;;;;5071328;28;20168;-69
2022/06/16 09:12:23;;;;;;;4.93;4.53;;;28.80;64.40;;;;;;5045174;28;20210;-70
2022/06/16 09:15:13;;;;;;;8.45;4.05;;;27.40;80.90;;;;;;5071177;28;20240;-70
2022/06/16 09:17:47;;;;;;;4.38;3.97;;;28.30;82.00;;;;;;5071670;28;20577;-70
2022/06/16 09:20:25;;;;;;;4.90;4.40;;;28.70;78.50;;;;;;5069823;28;20247;-70
2022/06/16 09:23:27;;;;;;;4.35;3.35;;;28.60;78.20;;;;;;5081323;28;20173;-70
2022/06/16 09:26:08;;;;;;;4.05;3.50;;;29.90;69.20;;;;;;5078294;28;20175;-70
2022/06/16 09:29:14;;;;;;;3.95;3.53;;;31.30;81.70;;;;;;5070976;28;20723;-70
2022/06/16 09:31:40;;;;;;;4.45;3.65;;;33.00;47.70;;;;;;5037923;28;20639;-71
2022/06/16 09:34:19;;;;;;;6.57;3.90;;;33.00;42.30;;;;;;5070968;28;20207;-70
2022/06/16 09:36:52;;;;;;;4.38;3.30;;;33.60;38.60;;;;;;5071507;28;20180;-70
2022/06/16 09:39:29;;;;;;;9.73;6.53;;;33.70;35.50;;;;;;5071551;28;20173;-70
2022/06/16 09:45:01;;;;;;;7.22;4.13;;;34.00;26.10;;;;;;5075440;28;20200;-70
2022/06/16 09:47:33;;;;;;;9.38;3.83;;;34.60;22.20;;;;;;5075179;28;20196;-70
2022/06/16 09:50:21;;;;;;;6.43;3.63;;;35.00;19.70;;;;;;5074724;28;20632;-70
2022/06/16 09:53:08;;;;;;;4.35;3.33;;;33.30;18.10;;;;;;5075076;28;20208;-70
2022/06/16 09:55:38;;;;;;;5.35;3.20;;;33.40;21.60;;;;;;5075087;28;20273;-70
2022/06/16 09:58:11;;;;;;;4.70;3.28;;;33.60;19.10;;;;;;5075159;28;20168;-70
2022/06/16 10:00:37;;;;;;;5.18;2.95;;;32.20;19.20;;;;;;5074960;28;20168;-69
2022/06/16 10:03:27;;;;;;;4.85;4.05;;;31.60;20.00;;;;;;5074170;28;20224;-71
2022/06/16 10:06:06;;;;;;;6.55;3.63;;;31.40;22.50;;;;;;5074634;28;20161;-70
2022/06/16 10:08:41;;;;;;;6.55;3.83;;;32.30;21.20;;;;;;5074494;28;20171;-71
2022/06/16 10:11:19;;;;;;;5.75;4.28;;;33.60;15.90;;;;;;5074846;28;20182;-70
2022/06/16 10:14:04;;;;;;;5.13;3.58;;;31.50;19.40;;;;;;5075138;28;20173;-70
2022/06/16 10:17:09;;;;;;;8.48;3.25;;;30.60;23.40;;;;;;5094332;28;20691;-70
2022/06/16 10:19:39;;;;;;;5.70;3.13;;;30.40;25.80;;;;;;5012249;28;20174;-69
2022/06/16 10:22:07;;;;;;;3.45;2.95;;;31.30;22.80;;;;;;5012114;28;20191;-69
2022/06/16 10:24:41;;;;;;;4.47;3.40;;;31.70;19.20;;;;;;4995993;28;20174;-70
2022/06/16 10:27:11;;;;;;;3.20;2.90;;;31.20;20.70;;;;;;5012833;28;20290;-70
2022/06/16 10:29:37;;;;;;;5.05;3.47;;;31.40;17.20;;;;;;5012812;28;20178;-70
2022/06/16 10:32:13;;;;;;;3.55;3.00;;;29.60;20.60;;;;;;5011896;28;20385;-71
2022/06/16 10:34:41;;;;;;;4.55;3.00;;;29.60;25.70;;;;;;5012336;28;20719;-70
2022/06/16 10:37:17;;;;;;;5.55;3.33;;;30.50;40.80;;;;;;4994972;28;20270;-70
2022/06/16 10:40:04;;;;;;;3.78;3.20;;;29.40;26.80;;;;;;4992999;28;20178;-70
2022/06/16 10:42:49;;;;;;;3.38;3.08;;;30.40;27.10;;;;;;4991922;28;20175;-71
2022/06/16 10:45:22;;;;;;;4.03;2.60;;;30.10;24.40;;;;;;4995501;28;20181;-69
2022/06/16 10:48:01;;;;;;;3.28;3.03;;;29.00;27.90;;;;;;5005074;28;20190;-69
2022/06/16 10:50:42;;;;;;;3.88;3.20;;;28.80;28.00;;;;;;4994887;28;20298;-69
2022/06/16 10:53:23;;;;;;;3.42;2.97;;;28.90;30.00;;;;;;5020381;28;20191;-69
2022/06/16 10:55:49;;;;;;;4.95;3.65;;;28.30;29.90;;;;;;5073336;28;20238;-69
2022/06/16 10:58:24;;;;;;;4.00;2.90;;;28.60;30.00;;;;;;5074302;28;20157;-68
2022/06/16 11:01:06;;;;;;;3.38;3.00;;;27.80;34.60;;;;;;5073647;28;20237;-69
2022/06/16 11:03:41;;;;;;;4.97;3.30;;;27.30;37.70;;;;;;5074135;28;20195;-67
2022/06/16 11:06:07;;;;;;;3.50;2.67;;;28.00;38.20;;;;;;5079393;28;20184;-68
2022/06/16 11:08:37;;;;;;;3.53;3.15;;;28.80;33.50;;;;;;5078903;28;20173;-68
2022/06/16 11:11:04;;;;;;;3.88;2.70;;;28.20;31.20;;;;;;5082959;28;20188;-68
2022/06/16 11:13:53;;;;;;;2.72;2.53;;;27.80;29.00;;;;;;5074359;28;20197;-70
2022/06/16 11:16:38;;;;;;;3.25;2.78;;;27.40;35.60;;;;;;5072207;28;20219;-69
2022/06/16 11:19:09;;;;;;;6.50;3.22;;;27.00;29.30;;;;;;5073136;28;20575;-68
2022/06/16 11:21:35;;;;;;;4.75;2.30;;;27.30;39.90;;;;;;5073598;28;20173;-68
2022/06/16 11:24:20;;;;;;;5.10;2.78;;;27.50;37.30;;;;;;5075926;28;20180;-69
2022/06/16 11:26:46;;;;;;;2.92;2.72;;;28.30;35.80;;;;;;5073626;28;20307;-69
2022/06/16 11:29:11;;;;;;;4.28;3.85;;;28.10;32.20;;;;;;5072740;28;20204;-69
2022/06/16 11:31:39;;;;;;;3.92;2.80;;;28.10;33.10;;;;;;5076601;28;20172;-69
2022/06/16 11:34:09;;;;;;;3.17;2.50;;;28.50;33.30;;;;;;5076959;28;20257;-69
2022/06/16 11:36:58;;;;;;;3.88;2.58;;;27.40;31.20;;;;;;5073555;28;20196;-69
2022/06/16 11:39:39;;;;;;;6.97;3.17;;;27.40;35.60;;;;;;5075376;28;20168;-67
2022/06/16 11:42:17;;;;;;;4.18;2.80;;;27.70;37.30;;;;;;5075998;28;20176;-68
2022/06/16 11:44:48;;;;;;;2.83;2.60;;;28.00;30.90;;;;;;5079285;28;20169;-67
2022/06/16 11:47:48;;;;;;;4.97;2.50;;;27.70;30.00;;;;;;5072308;28;20200;-68
2022/06/16 11:50:36;;;;;;;2.75;2.50;;;27.90;34.70;;;;;;5072676;28;20176;-68
2022/06/16 11:53:16;;;;;;;4.03;2.63;;;28.00;35.60;;;;;;5073140;28;20168;-68
2022/06/16 11:55:51;;;;;;;5.97;3.22;;;27.50;37.60;;;;;;5078138;28;20201;-67
2022/06/16 11:58:46;;;;;;;4.22;2.33;;;27.30;38.80;;;;;;5072100;28;20565;-68
2022/06/16 12:01:21;;;;;;;4.75;2.67;;;27.30;38.40;;;;;;5073072;28;20652;-68
2022/06/16 12:04:14;;;;;;;4.05;3.03;;;27.10;38.00;;;;;;5072251;28;20203;-68
2022/06/16 12:07:03;;;;;;;2.55;2.35;;;27.30;36.30;;;;;;5072417;28;20617;-67
2022/06/16 12:09:55;;;;;;;6.47;2.88;;;26.70;43.50;;;;;;5072677;28;20172;-68
2022/06/16 12:12:46;;;;;;;5.32;3.20;;;26.50;47.50;;;;;;5072355;28;20169;-68
2022/06/16 12:15:14;;;;;;;2.97;2.65;;;26.70;48.80;;;;;;5073059;28;20562;-68
2022/06/16 12:18:18;;;;;;;3.80;2.92;;;26.50;46.70;;;;;;5072576;28;20175;-68
2022/06/16 12:20:52;;;;;;;4.82;2.60;;;26.50;48.40;;;;;;5077501;28;20245;-67
2022/06/16 12:23:44;;;;;;;4.00;2.95;;;26.40;50.50;;;;;;5080142;28;20166;-67
2022/06/16 12:26:26;;;;;;;3.70;2.60;;;26.80;46.30;;;;;;5072099;28;20483;-67
2022/06/16 12:29:11;;;;;;;5.07;2.80;;;27.10;48.80;;;;;;5072722;28;20164;-67
2022/06/16 12:31:45;;;;;;;2.63;2.42;;;27.20;48.20;;;;;;5072378;28;20253;-68
2022/06/16 12:34:15;;;;;;;7.15;3.20;;;27.00;48.60;;;;;;5071959;28;20207;-68
2022/06/16 12:36:51;;;;;;;3.90;2.90;;;26.30;49.50;;;;;;5072716;28;20285;-68
2022/06/16 12:39:26;;;;;;;6.25;5.70;;;26.10;51.50;;;;;;5072411;28;20665;-68
2022/06/16 12:41:55;;;;;;;3.88;3.20;;;26.10;52.80;;;;;;5072260;28;20164;-68
2022/06/16 12:44:43;;;;;;;4.53;3.03;;;25.80;53.60;;;;;;5072442;28;20161;-68
2022/06/16 12:47:13;;;;;;;2.72;2.50;;;25.70;56.60;;;;;;5072548;28;20191;-67
2022/06/16 12:49:49;;;;;;;7.95;3.22;;;25.70;59.00;;;;;;5072330;28;20264;-67
2022/06/16 12:52:34;;;;;;;5.03;2.95;;;25.80;59.10;;;;;;5071746;28;20172;-68
2022/06/16 12:55:09;;;;;;;5.00;3.10;;;26.10;60.00;;;;;;5072577;28;20207;-68
2022/06/16 12:57:40;;;;;;;4.32;2.70;;;26.40;59.80;;;;;;5071969;28;20171;-69
2022/06/16 13:00:16;;;;;;;3.10;2.90;;;26.90;57.80;;;;;;5071542;28;20172;-69
2022/06/16 13:02:55;;;;;;;3.30;2.65;;;26.30;57.40;;;;;;5071971;28;20228;-69
2022/06/16 13:05:21;;;;;;;6.47;2.83;;;26.30;61.00;;;;;;5072080;28;20197;-69
2022/06/16 13:07:51;;;;;;;4.72;3.40;;;26.40;58.60;;;;;;5071618;28;20215;-69
2022/06/16 13:10:17;;;;;;;5.25;3.08;;;26.50;61.10;;;;;;5071503;28;20264;-68
2022/06/16 13:12:54;;;;;;;5.22;3.72;;;26.60;57.70;;;;;;5071198;28;20271;-68
2022/06/16 13:15:32;;;;;;;3.92;3.33;;;26.10;61.40;;;;;;5072449;28;20212;-67
2022/06/16 13:18:28;;;;;;;3.95;3.15;;;26.00;66.70;;;;;;5075637;28;20168;-67
2022/06/16 13:21:05;;;;;;;3.20;2.90;;;26.40;67.50;;;;;;5039027;28;20209;-68
2022/06/16 13:23:47;;;;;;;4.00;3.70;;;26.50;65.80;;;;;;5075492;28;20168;-67
2022/06/16 13:26:15;;;;;;;7.10;3.08;;;26.50;62.00;;;;;;5075976;28;20237;-67
2022/06/16 13:28:51;;;;;;;4.25;3.40;;;26.60;62.70;;;;;;5075732;28;20565;-69
2022/06/16 13:31:48;;;;;;;6.28;3.30;;;26.80;63.20;;;;;;5080833;28;20208;-68
2022/06/16 13:34:33;;;;;;;3.75;3.08;;;27.10;62.00;;;;;;5077756;28;20193;-68
2022/06/16 13:36:59;;;;;;;3.72;2.90;;;26.80;63.20;;;;;;5075805;28;20187;-69
2022/06/16 13:39:55;;;;;;;4.40;2.92;;;26.60;64.50;;;;;;5075429;28;20468;-68
2022/06/16 13:42:53;;;;;;;4.43;3.00;;;26.30;66.60;;;;;;5074882;28;20252;-68